sensor_id;sensor_type;location;lat;lon;timestamp;pressure;altitude;pressure_sealevel;temperature
20058;BMP180;10189;49.546;7.906;2023-03-23T00:01:10;97345.00;;;15.20
20058;BMP180;10189;49.546;7.906;2023-03-23T00:03:36;97356.00;;;15.20
20058;BMP180;10189;49.546;7.906;2023-03-23T00:06:03;97344.00;;;15.20
20058;BMP180;10189;49.546;7.906;2023-03-23T00:08:38;97350.00;;;15.20
20058;BMP180;10189;49.546;7.906;2023-03-23T00:13:42;97358.00;;;15.30
20058;BMP180;10189;49.546;7.906;2023-03-23T00:16:10;97350.00;;;15.40
20058;BMP180;10189;49.546;7.906;2023-03-23T00:18:48;97356.00;;;15.40
20058;BMP180;10189;49.546;7.906;2023-03-23T00:21:20;97354.00;;;15.40
20058;BMP180;10189;49.546;7.906;2023-03-23T00:23:46;97356.00;;;15.40
20058;BMP180;10189;49.546;7.906;2023-03-23T00:26:12;97361.00;;;15.40
20058;BMP180;10189;49.546;7.906;2023-03-23T00:28:39;97353.00;;;15.50
20058;BMP180;10189;49.546;7.906;2023-03-23T00:31:08;97345.00;;;15.40
20058;BMP180;10189;49.546;7.906;2023-03-23T00:33:37;97354.00;;;15.50
20058;BMP180;10189;49.546;7.906;2023-03-23T00:36:11;97338.00;;;15.50
20058;BMP180;10189;49.546;7.906;2023-03-23T00:38:40;97348.00;;;15.60
20058;BMP180;10189;49.546;7.906;2023-03-23T00:41:07;97332.00;;;15.50
20058;BMP180;10189;49.546;7.906;2023-03-23T00:43:33;97350.00;;;15.40
20058;BMP180;10189;49.546;7.906;2023-03-23T00:46:03;97348.00;;;15.40
20058;BMP180;10189;49.546;7.906;2023-03-23T00:48:35;97346.00;;;15.40
20058;BMP180;10189;49.546;7.906;2023-03-23T00:51:03;97341.00;;;15.40
20058;BMP180;10189;49.546;7.906;2023-03-23T00:53:39;97337.00;;;15.40
20058;BMP180;10189;49.546;7.906;2023-03-23T00:56:07;97333.00;;;15.30
20058;BMP180;10189;49.546;7.906;2023-03-23T00:58:33;97337.00;;;15.30
20058;BMP180;10189;49.546;7.906;2023-03-23T01:01:01;97335.00;;;15.30
20058;BMP180;10189;49.546;7.906;2023-03-23T01:03:27;97333.00;;;15.20
20058;BMP180;10189;49.546;7.906;2023-03-23T01:05:55;97328.00;;;15.10
20058;BMP180;10189;49.546;7.906;2023-03-23T01:08:23;97326.00;;;15.20
20058;BMP180;10189;49.546;7.906;2023-03-23T01:10:50;97317.00;;;15.20
20058;BMP180;10189;49.546;7.906;2023-03-23T01:13:16;97312.00;;;15.20
20058;BMP180;10189;49.546;7.906;2023-03-23T01:15:43;97318.00;;;15.30
20058;BMP180;10189;49.546;7.906;2023-03-23T01:18:09;97315.00;;;15.30
20058;BMP180;10189;49.546;7.906;2023-03-23T01:20:36;97319.00;;;15.20
20058;BMP180;10189;49.546;7.906;2023-03-23T01:23:03;97321.00;;;15.20
20058;BMP180;10189;49.546;7.906;2023-03-23T01:25:34;97323.00;;;15.20
20058;BMP180;10189;49.546;7.906;2023-03-23T01:28:00;97321.00;;;15.20
20058;BMP180;10189;49.546;7.906;2023-03-23T01:30:26;97312.00;;;15.20
20058;BMP180;10189;49.546;7.906;2023-03-23T01:32:54;97300.00;;;15.20
20058;BMP180;10189;49.546;7.906;2023-03-23T01:35:21;97296.00;;;15.20
20058;BMP180;10189;49.546;7.906;2023-03-23T01:37:47;97300.00;;;15.30
20058;BMP180;10189;49.546;7.906;2023-03-23T01:40:15;97284.00;;;15.20
20058;BMP180;10189;49.546;7.906;2023-03-23T01:42:43;97299.00;;;15.10
20058;BMP180;10189;49.546;7.906;2023-03-23T01:45:28;97289.00;;;15.10
20058;BMP180;10189;49.546;7.906;2023-03-23T01:50:39;97296.00;;;15.20
20058;BMP180;10189;49.546;7.906;2023-03-23T01:53:10;97301.00;;;15.10
20058;BMP180;10189;49.546;7.906;2023-03-23T01:55:39;97291.00;;;15.20
20058;BMP180;10189;49.546;7.906;2023-03-23T01:58:08;97303.00;;;15.10
20058;BMP180;10189;49.546;7.906;2023-03-23T02:00:35;97307.00;;;15.00
20058;BMP180;10189;49.546;7.906;2023-03-23T02:03:03;97299.00;;;15.10
20058;BMP180;10189;49.546;7.906;2023-03-23T02:05:41;97309.00;;;15.00
20058;BMP180;10189;49.546;7.906;2023-03-23T02:08:17;97307.00;;;15.00
20058;BMP180;10189;49.546;7.906;2023-03-23T02:10:44;97303.00;;;15.10
20058;BMP180;10189;49.546;7.906;2023-03-23T02:13:12;97297.00;;;15.10
20058;BMP180;10189;49.546;7.906;2023-03-23T02:16:08;97292.00;;;15.10
20058;BMP180;10189;49.546;7.906;2023-03-23T02:33:36;97273.00;;;15.00
20058;BMP180;10189;49.546;7.906;2023-03-23T02:39:24;97272.00;;;15.00
20058;BMP180;10189;49.546;7.906;2023-03-23T02:42:05;97267.00;;;15.00
20058;BMP180;10189;49.546;7.906;2023-03-23T02:44:36;97270.00;;;15.00
20058;BMP180;10189;49.546;7.906;2023-03-23T02:47:08;97262.00;;;14.90
20058;BMP180;10189;49.546;7.906;2023-03-23T02:49:39;97252.00;;;15.00
20058;BMP180;10189;49.546;7.906;2023-03-23T02:52:11;97245.00;;;15.00
20058;BMP180;10189;49.546;7.906;2023-03-23T02:54:44;97256.00;;;14.90
20058;BMP180;10189;49.546;7.906;2023-03-23T02:57:11;97259.00;;;15.00
20058;BMP180;10189;49.546;7.906;2023-03-23T02:59:41;97246.00;;;15.00
20058;BMP180;10189;49.546;7.906;2023-03-23T03:02:17;97243.00;;;15.10
20058;BMP180;10189;49.546;7.906;2023-03-23T03:08:50;97245.00;;;15.00
20058;BMP180;10189;49.546;7.906;2023-03-23T03:11:21;97256.00;;;15.10
20058;BMP180;10189;49.546;7.906;2023-03-23T03:14:05;97249.00;;;15.20
20058;BMP180;10189;49.546;7.906;2023-03-23T03:16:42;97247.00;;;15.20
20058;BMP180;10189;49.546;7.906;2023-03-23T03:19:32;97237.00;;;15.20
20058;BMP180;10189;49.546;7.906;2023-03-23T03:22:00;97236.00;;;15.20
20058;BMP180;10189;49.546;7.906;2023-03-23T03:24:38;97249.00;;;15.20
20058;BMP180;10189;49.546;7.906;2023-03-23T03:27:16;97239.00;;;15.10
20058;BMP180;10189;49.546;7.906;2023-03-23T03:29:56;97252.00;;;15.10
20058;BMP180;10189;49.546;7.906;2023-03-23T03:32:48;97241.00;;;15.20
20058;BMP180;10189;49.546;7.906;2023-03-23T03:35:17;97241.00;;;15.20
20058;BMP180;10189;49.546;7.906;2023-03-23T03:37:44;97245.00;;;15.30
20058;BMP180;10189;49.546;7.906;2023-03-23T03:40:18;97240.00;;;15.20
20058;BMP180;10189;49.546;7.906;2023-03-23T03:42:45;97248.00;;;15.20
20058;BMP180;10189;49.546;7.906;2023-03-23T03:45:16;97245.00;;;15.20
20058;BMP180;10189;49.546;7.906;2023-03-23T03:47:42;97257.00;;;15.30
20058;BMP180;10189;49.546;7.906;2023-03-23T03:50:10;97258.00;;;15.30
20058;BMP180;10189;49.546;7.906;2023-03-23T03:52:37;97258.00;;;15.20
20058;BMP180;10189;49.546;7.906;2023-03-23T03:55:06;97258.00;;;15.20
20058;BMP180;10189;49.546;7.906;2023-03-23T03:57:34;97278.00;;;15.20
20058;BMP180;10189;49.546;7.906;2023-03-23T04:00:05;97283.00;;;15.10
20058;BMP180;10189;49.546;7.906;2023-03-23T04:02:48;97281.00;;;15.10
20058;BMP180;10189;49.546;7.906;2023-03-23T04:05:33;97283.00;;;15.00
20058;BMP180;10189;49.546;7.906;2023-03-23T04:07:59;97288.00;;;15.00
20058;BMP180;10189;49.546;7.906;2023-03-23T04:10:31;97299.00;;;14.80
20058;BMP180;10189;49.546;7.906;2023-03-23T04:12:57;97302.00;;;14.70
20058;BMP180;10189;49.546;7.906;2023-03-23T04:15:45;97297.00;;;14.70
20058;BMP180;10189;49.546;7.906;2023-03-23T04:18:13;97290.00;;;14.60
20058;BMP180;10189;49.546;7.906;2023-03-23T04:20:45;97298.00;;;14.60
20058;BMP180;10189;49.546;7.906;2023-03-23T04:23:15;97295.00;;;14.60
20058;BMP180;10189;49.546;7.906;2023-03-23T04:25:47;97295.00;;;14.50
20058;BMP180;10189;49.546;7.906;2023-03-23T04:28:14;97303.00;;;14.50
20058;BMP180;10189;49.546;7.906;2023-03-23T04:30:54;97311.00;;;14.40
20058;BMP180;10189;49.546;7.906;2023-03-23T04:33:26;97308.00;;;14.30
20058;BMP180;10189;49.546;7.906;2023-03-23T04:35:58;97311.00;;;14.30
20058;BMP180;10189;49.546;7.906;2023-03-23T04:38:36;97308.00;;;14.20
20058;BMP180;10189;49.546;7.906;2023-03-23T04:41:10;97311.00;;;14.30
20058;BMP180;10189;49.546;7.906;2023-03-23T04:44:02;97306.00;;;14.20
20058;BMP180;10189;49.546;7.906;2023-03-23T04:46:45;97306.00;;;14.20
20058;BMP180;10189;49.546;7.906;2023-03-23T04:49:16;97311.00;;;14.20
20058;BMP180;10189;49.546;7.906;2023-03-23T04:51:49;97318.00;;;14.20
20058;BMP180;10189;49.546;7.906;2023-03-23T04:54:36;97328.00;;;14.20
20058;BMP180;10189;49.546;7.906;2023-03-23T04:57:02;97321.00;;;14.20
20058;BMP180;10189;49.546;7.906;2023-03-23T04:59:30;97326.00;;;14.10
20058;BMP180;10189;49.546;7.906;2023-03-23T05:02:17;97323.00;;;14.00
20058;BMP180;10189;49.546;7.906;2023-03-23T05:04:46;97330.00;;;13.80
20058;BMP180;10189;49.546;7.906;2023-03-23T05:07:18;97326.00;;;13.80
20058;BMP180;10189;49.546;7.906;2023-03-23T05:09:48;97323.00;;;13.80
20058;BMP180;10189;49.546;7.906;2023-03-23T05:12:17;97327.00;;;13.70
20058;BMP180;10189;49.546;7.906;2023-03-23T05:14:53;97315.00;;;13.70
20058;BMP180;10189;49.546;7.906;2023-03-23T05:17:23;97317.00;;;13.70
20058;BMP180;10189;49.546;7.906;2023-03-23T05:19:51;97305.00;;;13.70
20058;BMP180;10189;49.546;7.906;2023-03-23T05:22:39;97324.00;;;13.60
20058;BMP180;10189;49.546;7.906;2023-03-23T05:25:08;97315.00;;;13.60
20058;BMP180;10189;49.546;7.906;2023-03-23T05:27:41;97326.00;;;13.60
20058;BMP180;10189;49.546;7.906;2023-03-23T05:30:29;97333.00;;;13.50
20058;BMP180;10189;49.546;7.906;2023-03-23T05:32:57;97332.00;;;13.50
20058;BMP180;10189;49.546;7.906;2023-03-23T05:35:41;97327.00;;;13.40
20058;BMP180;10189;49.546;7.906;2023-03-23T05:38:07;97330.00;;;13.40
20058;BMP180;10189;49.546;7.906;2023-03-23T05:40:34;97328.00;;;13.40
20058;BMP180;10189;49.546;7.906;2023-03-23T05:43:09;97331.00;;;13.30
20058;BMP180;10189;49.546;7.906;2023-03-23T05:45:51;97330.00;;;13.40
20058;BMP180;10189;49.546;7.906;2023-03-23T05:48:17;97330.00;;;13.30
20058;BMP180;10189;49.546;7.906;2023-03-23T05:50:43;97344.00;;;13.40
20058;BMP180;10189;49.546;7.906;2023-03-23T05:53:09;97330.00;;;13.20
20058;BMP180;10189;49.546;7.906;2023-03-23T05:55:38;97351.00;;;13.20
20058;BMP180;10189;49.546;7.906;2023-03-23T05:58:36;97334.00;;;13.10
20058;BMP180;10189;49.546;7.906;2023-03-23T06:01:08;97340.00;;;13.20
20058;BMP180;10189;49.546;7.906;2023-03-23T06:03:35;97338.00;;;13.30
20058;BMP180;10189;49.546;7.906;2023-03-23T06:06:11;97339.00;;;13.30
20058;BMP180;10189;49.546;7.906;2023-03-23T06:08:48;97352.00;;;13.30
20058;BMP180;10189;49.546;7.906;2023-03-23T06:11:18;97354.00;;;13.30
20058;BMP180;10189;49.546;7.906;2023-03-23T06:13:58;97355.00;;;13.30
20058;BMP180;10189;49.546;7.906;2023-03-23T06:16:25;97365.00;;;13.30
20058;BMP180;10189;49.546;7.906;2023-03-23T06:18:56;97364.00;;;13.20
20058;BMP180;10189;49.546;7.906;2023-03-23T06:21:30;97366.00;;;13.30
20058;BMP180;10189;49.546;7.906;2023-03-23T06:24:26;97363.00;;;13.40
20058;BMP180;10189;49.546;7.906;2023-03-23T06:26:52;97374.00;;;13.30
20058;BMP180;10189;49.546;7.906;2023-03-23T06:29:21;97380.00;;;13.40
20058;BMP180;10189;49.546;7.906;2023-03-23T06:32:00;97377.00;;;13.30
20058;BMP180;10189;49.546;7.906;2023-03-23T06:34:28;97391.00;;;13.30
20058;BMP180;10189;49.546;7.906;2023-03-23T06:37:15;97382.00;;;13.40
20058;BMP180;10189;49.546;7.906;2023-03-23T06:40:05;97375.00;;;13.30
20058;BMP180;10189;49.546;7.906;2023-03-23T06:42:38;97373.00;;;13.30
20058;BMP180;10189;49.546;7.906;2023-03-23T06:45:22;97382.00;;;13.30
20058;BMP180;10189;49.546;7.906;2023-03-23T06:47:55;97384.00;;;13.30
20058;BMP180;10189;49.546;7.906;2023-03-23T06:50:22;97380.00;;;13.40
20058;BMP180;10189;49.546;7.906;2023-03-23T06:52:50;97389.00;;;13.50
20058;BMP180;10189;49.546;7.906;2023-03-23T06:55:18;97396.00;;;13.60
20058;BMP180;10189;49.546;7.906;2023-03-23T06:57:44;97395.00;;;13.60
20058;BMP180;10189;49.546;7.906;2023-03-23T07:00:13;97380.00;;;13.70
20058;BMP180;10189;49.546;7.906;2023-03-23T07:02:41;97391.00;;;13.70
20058;BMP180;10189;49.546;7.906;2023-03-23T07:05:11;97376.00;;;14.00
20058;BMP180;10189;49.546;7.906;2023-03-23T07:07:40;97381.00;;;13.90
20058;BMP180;10189;49.546;7.906;2023-03-23T07:10:19;97379.00;;;14.00
20058;BMP180;10189;49.546;7.906;2023-03-23T07:12:45;97376.00;;;13.90
20058;BMP180;10189;49.546;7.906;2023-03-23T07:15:12;97378.00;;;13.90
20058;BMP180;10189;49.546;7.906;2023-03-23T07:17:41;97398.00;;;13.70
20058;BMP180;10189;49.546;7.906;2023-03-23T07:20:22;97403.00;;;13.80
20058;BMP180;10189;49.546;7.906;2023-03-23T07:22:49;97403.00;;;13.70
20058;BMP180;10189;49.546;7.906;2023-03-23T07:25:35;97393.00;;;13.50
20058;BMP180;10189;49.546;7.906;2023-03-23T07:28:03;97401.00;;;13.40
20058;BMP180;10189;49.546;7.906;2023-03-23T07:30:29;97411.00;;;13.60
20058;BMP180;10189;49.546;7.906;2023-03-23T07:32:57;97407.00;;;13.60
20058;BMP180;10189;49.546;7.906;2023-03-23T07:35:24;97403.00;;;13.80
20058;BMP180;10189;49.546;7.906;2023-03-23T07:37:57;97402.00;;;14.10
20058;BMP180;10189;49.546;7.906;2023-03-23T07:40:23;97394.00;;;14.10
20058;BMP180;10189;49.546;7.906;2023-03-23T07:42:54;97403.00;;;14.00
20058;BMP180;10189;49.546;7.906;2023-03-23T07:45:43;97398.00;;;14.30
20058;BMP180;10189;49.546;7.906;2023-03-23T07:48:13;97407.00;;;14.40
20058;BMP180;10189;49.546;7.906;2023-03-23T07:50:39;97413.00;;;14.10
20058;BMP180;10189;49.546;7.906;2023-03-23T07:53:09;97414.00;;;14.30
20058;BMP180;10189;49.546;7.906;2023-03-23T07:55:36;97427.00;;;14.40
20058;BMP180;10189;49.546;7.906;2023-03-23T07:58:15;97410.00;;;14.40
20058;BMP180;10189;49.546;7.906;2023-03-23T08:00:46;97420.00;;;14.60
20058;BMP180;10189;49.546;7.906;2023-03-23T08:03:15;97410.00;;;14.70
20058;BMP180;10189;49.546;7.906;2023-03-23T08:05:53;97411.00;;;14.80
20058;BMP180;10189;49.546;7.906;2023-03-23T08:08:37;97414.00;;;14.80
20058;BMP180;10189;49.546;7.906;2023-03-23T08:11:24;97426.00;;;14.90
20058;BMP180;10189;49.546;7.906;2023-03-23T08:14:13;97427.00;;;15.00
20058;BMP180;10189;49.546;7.906;2023-03-23T08:16:56;97427.00;;;14.80
20058;BMP180;10189;49.546;7.906;2023-03-23T08:19:38;97437.00;;;15.00
20058;BMP180;10189;49.546;7.906;2023-03-23T08:22:23;97439.00;;;15.00
20058;BMP180;10189;49.546;7.906;2023-03-23T08:25:17;97452.00;;;15.10
20058;BMP180;10189;49.546;7.906;2023-03-23T08:28:09;97447.00;;;15.20
20058;BMP180;10189;49.546;7.906;2023-03-23T08:31:14;97448.00;;;14.90
20058;BMP180;10189;49.546;7.906;2023-03-23T08:33:58;97449.00;;;15.00
20058;BMP180;10189;49.546;7.906;2023-03-23T08:36:34;97448.00;;;14.90
20058;BMP180;10189;49.546;7.906;2023-03-23T08:39:26;97452.00;;;15.00
20058;BMP180;10189;49.546;7.906;2023-03-23T08:42:02;97454.00;;;14.60
20058;BMP180;10189;49.546;7.906;2023-03-23T08:45:06;97459.00;;;14.70
20058;BMP180;10189;49.546;7.906;2023-03-23T08:48:11;97439.00;;;15.10
20058;BMP180;10189;49.546;7.906;2023-03-23T08:50:51;97457.00;;;14.90
20058;BMP180;10189;49.546;7.906;2023-03-23T08:53:36;97458.00;;;14.80
20058;BMP180;10189;49.546;7.906;2023-03-23T08:56:14;97467.00;;;14.80
20058;BMP180;10189;49.546;7.906;2023-03-23T08:59:01;97472.00;;;14.70
20058;BMP180;10189;49.546;7.906;2023-03-23T09:01:53;97477.00;;;14.40
20058;BMP180;10189;49.546;7.906;2023-03-23T09:04:33;97481.00;;;14.20
20058;BMP180;10189;49.546;7.906;2023-03-23T09:07:22;97493.00;;;14.00
20058;BMP180;10189;49.546;7.906;2023-03-23T09:09:48;97488.00;;;14.10
20058;BMP180;10189;49.546;7.906;2023-03-23T09:12:13;97488.00;;;14.40
20058;BMP180;10189;49.546;7.906;2023-03-23T09:14:39;97484.00;;;14.30
20058;BMP180;10189;49.546;7.906;2023-03-23T09:17:06;97497.00;;;14.40
20058;BMP180;10189;49.546;7.906;2023-03-23T09:19:34;97488.00;;;14.30
20058;BMP180;10189;49.546;7.906;2023-03-23T09:22:00;97489.00;;;14.50
20058;BMP180;10189;49.546;7.906;2023-03-23T09:24:27;97494.00;;;14.50
20058;BMP180;10189;49.546;7.906;2023-03-23T09:26:53;97495.00;;;14.40
20058;BMP180;10189;49.546;7.906;2023-03-23T09:29:19;97490.00;;;14.30
20058;BMP180;10189;49.546;7.906;2023-03-23T09:31:47;97480.00;;;14.30
20058;BMP180;10189;49.546;7.906;2023-03-23T09:34:14;97475.00;;;14.60
20058;BMP180;10189;49.546;7.906;2023-03-23T09:36:43;97470.00;;;15.00
20058;BMP180;10189;49.546;7.906;2023-03-23T09:39:09;97463.00;;;15.50
20058;BMP180;10189;49.546;7.906;2023-03-23T09:42:05;97465.00;;;16.30
20058;BMP180;10189;49.546;7.906;2023-03-23T09:47:49;97449.00;;;16.60
20058;BMP180;10189;49.546;7.906;2023-03-23T09:50:25;97451.00;;;16.80
20058;BMP180;10189;49.546;7.906;2023-03-23T09:53:03;97443.00;;;17.00
20058;BMP180;10189;49.546;7.906;2023-03-23T09:55:31;97444.00;;;17.10
20058;BMP180;10189;49.546;7.906;2023-03-23T10:00:51;97456.00;;;16.00
20058;BMP180;10189;49.546;7.906;2023-03-23T10:03:24;97468.00;;;16.00
20058;BMP180;10189;49.546;7.906;2023-03-23T10:05:54;97450.00;;;16.10
20058;BMP180;10189;49.546;7.906;2023-03-23T10:08:27;97461.00;;;15.90
20058;BMP180;10189;49.546;7.906;2023-03-23T10:11:16;97463.00;;;15.50
20058;BMP180;10189;49.546;7.906;2023-03-23T10:16:46;97496.00;;;15.30
20058;BMP180;10189;49.546;7.906;2023-03-23T10:19:34;97495.00;;;15.50
20058;BMP180;10189;49.546;7.906;2023-03-23T10:22:31;97498.00;;;15.30
20058;BMP180;10189;49.546;7.906;2023-03-23T10:30:36;97498.00;;;15.20
20058;BMP180;10189;49.546;7.906;2023-03-23T10:33:18;97494.00;;;15.30
20058;BMP180;10189;49.546;7.906;2023-03-23T10:35:55;97490.00;;;15.50
20058;BMP180;10189;49.546;7.906;2023-03-23T10:38:48;97490.00;;;15.90
20058;BMP180;10189;49.546;7.906;2023-03-23T10:41:19;97484.00;;;16.20
20058;BMP180;10189;49.546;7.906;2023-03-23T10:43:46;97479.00;;;16.40
20058;BMP180;10189;49.546;7.906;2023-03-23T10:46:51;97473.00;;;16.40
20058;BMP180;10189;49.546;7.906;2023-03-23T10:49:28;97469.00;;;16.20
20058;BMP180;10189;49.546;7.906;2023-03-23T10:55:05;97458.00;;;16.90
20058;BMP180;10189;49.546;7.906;2023-03-23T10:57:35;97470.00;;;16.80
20058;BMP180;10189;49.546;7.906;2023-03-23T11:00:21;97474.00;;;16.90
20058;BMP180;10189;49.546;7.906;2023-03-23T11:05:52;97468.00;;;16.70
20058;BMP180;10189;49.546;7.906;2023-03-23T11:08:25;97461.00;;;16.80
20058;BMP180;10189;49.546;7.906;2023-03-23T11:11:18;97464.00;;;16.90
20058;BMP180;10189;49.546;7.906;2023-03-23T11:13:48;97468.00;;;17.00
20058;BMP180;10189;49.546;7.906;2023-03-23T11:16:29;97479.00;;;16.50
20058;BMP180;10189;49.546;7.906;2023-03-23T11:19:12;97480.00;;;16.20
20058;BMP180;10189;49.546;7.906;2023-03-23T11:21:40;97490.00;;;15.60
20058;BMP180;10189;49.546;7.906;2023-03-23T11:24:12;97494.00;;;15.50
20058;BMP180;10189;49.546;7.906;2023-03-23T11:26:38;97505.00;;;15.20
20058;BMP180;10189;49.546;7.906;2023-03-23T11:29:21;97480.00;;;15.20
20058;BMP180;10189;49.546;7.906;2023-03-23T11:31:52;97483.00;;;15.10
20058;BMP180;10189;49.546;7.906;2023-03-23T11:34:35;97484.00;;;15.10
20058;BMP180;10189;49.546;7.906;2023-03-23T11:37:13;97477.00;;;15.30
20058;BMP180;10189;49.546;7.906;2023-03-23T11:42:23;97470.00;;;15.70
20058;BMP180;10189;49.546;7.906;2023-03-23T11:44:54;97486.00;;;15.60
20058;BMP180;10189;49.546;7.906;2023-03-23T11:47:59;97476.00;;;15.60
20058;BMP180;10189;49.546;7.906;2023-03-23T11:50:34;97466.00;;;15.90
20058;BMP180;10189;49.546;7.906;2023-03-23T11:56:30;97465.00;;;16.20
20058;BMP180;10189;49.546;7.906;2023-03-23T11:58:59;97456.00;;;15.90
20058;BMP180;10189;49.546;7.906;2023-03-23T12:07:32;97447.00;;;16.10
20058;BMP180;10189;49.546;7.906;2023-03-23T12:13:05;97450.00;;;16.40
20058;BMP180;10189;49.546;7.906;2023-03-23T12:22:08;97446.00;;;16.20
20058;BMP180;10189;49.546;7.906;2023-03-23T12:28:04;97434.00;;;16.30
20058;BMP180;10189;49.546;7.906;2023-03-23T12:33:37;97401.00;;;16.00
20058;BMP180;10189;49.546;7.906;2023-03-23T12:43:04;97377.00;;;16.80
20058;BMP180;10189;49.546;7.906;2023-03-23T12:48:52;97399.00;;;17.30
20058;BMP180;10189;49.546;7.906;2023-03-23T12:54:41;97412.00;;;16.70
20058;BMP180;10189;49.546;7.906;2023-03-23T12:57:20;97408.00;;;16.70
20058;BMP180;10189;49.546;7.906;2023-03-23T13:00:23;97414.00;;;16.40
20058;BMP180;10189;49.546;7.906;2023-03-23T13:06:04;97416.00;;;16.20
20058;BMP180;10189;49.546;7.906;2023-03-23T13:09:01;97417.00;;;16.40
20058;BMP180;10189;49.546;7.906;2023-03-23T13:11:38;97414.00;;;16.20
20058;BMP180;10189;49.546;7.906;2023-03-23T13:23:15;97431.00;;;15.60
20058;BMP180;10189;49.546;7.906;2023-03-23T13:25:55;97432.00;;;15.50
20058;BMP180;10189;49.546;7.906;2023-03-23T13:29:01;97430.00;;;15.60
20058;BMP180;10189;49.546;7.906;2023-03-23T13:31:33;97417.00;;;15.50
20058;BMP180;10189;49.546;7.906;2023-03-23T13:36:42;97425.00;;;15.60
20058;BMP180;10189;49.546;7.906;2023-03-23T13:39:24;97426.00;;;15.70
20058;BMP180;10189;49.546;7.906;2023-03-23T13:45:08;97417.00;;;15.50
20058;BMP180;10189;49.546;7.906;2023-03-23T13:47:40;97419.00;;;15.30
20058;BMP180;10189;49.546;7.906;2023-03-23T14:03:42;97419.00;;;15.60
20058;BMP180;10189;49.546;7.906;2023-03-23T14:06:21;97409.00;;;15.70
20058;BMP180;10189;49.546;7.906;2023-03-23T14:09:31;97402.00;;;16.00
20058;BMP180;10189;49.546;7.906;2023-03-23T14:12:05;97397.00;;;15.90
20058;BMP180;10189;49.546;7.906;2023-03-23T14:14:44;97408.00;;;16.00
20058;BMP180;10189;49.546;7.906;2023-03-23T14:17:17;97409.00;;;15.90
20058;BMP180;10189;49.546;7.906;2023-03-23T14:19:50;97403.00;;;15.90
20058;BMP180;10189;49.546;7.906;2023-03-23T14:22:34;97414.00;;;15.80
20058;BMP180;10189;49.546;7.906;2023-03-23T14:25:17;97405.00;;;15.80
20058;BMP180;10189;49.546;7.906;2023-03-23T14:27:45;97400.00;;;15.60
20058;BMP180;10189;49.546;7.906;2023-03-23T14:30:22;97411.00;;;15.60
20058;BMP180;10189;49.546;7.906;2023-03-23T14:32:53;97386.00;;;15.60
20058;BMP180;10189;49.546;7.906;2023-03-23T14:35:35;97396.00;;;15.50
20058;BMP180;10189;49.546;7.906;2023-03-23T14:38:02;97392.00;;;15.50
20058;BMP180;10189;49.546;7.906;2023-03-23T14:40:30;97406.00;;;15.40
20058;BMP180;10189;49.546;7.906;2023-03-23T14:42:57;97397.00;;;15.50
20058;BMP180;10189;49.546;7.906;2023-03-23T14:45:25;97399.00;;;15.50
20058;BMP180;10189;49.546;7.906;2023-03-23T14:48:00;97406.00;;;15.60
20058;BMP180;10189;49.546;7.906;2023-03-23T14:50:49;97417.00;;;15.80
20058;BMP180;10189;49.546;7.906;2023-03-23T14:56:02;97403.00;;;15.80
20058;BMP180;10189;49.546;7.906;2023-03-23T14:58:30;97415.00;;;15.60
20058;BMP180;10189;49.546;7.906;2023-03-23T15:01:24;97421.00;;;15.60
20058;BMP180;10189;49.546;7.906;2023-03-23T15:04:05;97419.00;;;15.30
20058;BMP180;10189;49.546;7.906;2023-03-23T15:06:36;97434.00;;;15.20
20058;BMP180;10189;49.546;7.906;2023-03-23T15:09:11;97424.00;;;15.00
20058;BMP180;10189;49.546;7.906;2023-03-23T15:11:39;97437.00;;;14.80
20058;BMP180;10189;49.546;7.906;2023-03-23T15:14:20;97437.00;;;14.80
20058;BMP180;10189;49.546;7.906;2023-03-23T15:16:51;97434.00;;;14.80
20058;BMP180;10189;49.546;7.906;2023-03-23T15:19:41;97422.00;;;14.90
20058;BMP180;10189;49.546;7.906;2023-03-23T15:22:23;97429.00;;;14.90
20058;BMP180;10189;49.546;7.906;2023-03-23T15:24:51;97416.00;;;15.20
20058;BMP180;10189;49.546;7.906;2023-03-23T15:27:39;97403.00;;;15.40
20058;BMP180;10189;49.546;7.906;2023-03-23T15:32:54;97401.00;;;15.50
20058;BMP180;10189;49.546;7.906;2023-03-23T15:35:25;97388.00;;;15.70
20058;BMP180;10189;49.546;7.906;2023-03-23T15:37:58;97393.00;;;15.80
20058;BMP180;10189;49.546;7.906;2023-03-23T15:40:27;97389.00;;;15.70
20058;BMP180;10189;49.546;7.906;2023-03-23T15:43:15;97391.00;;;15.70
20058;BMP180;10189;49.546;7.906;2023-03-23T15:45:56;97379.00;;;15.80
20058;BMP180;10189;49.546;7.906;2023-03-23T15:48:24;97392.00;;;15.60
20058;BMP180;10189;49.546;7.906;2023-03-23T15:50:51;97384.00;;;15.60
20058;BMP180;10189;49.546;7.906;2023-03-23T15:53:30;97382.00;;;15.70
20058;BMP180;10189;49.546;7.906;2023-03-23T15:56:01;97379.00;;;15.70
20058;BMP180;10189;49.546;7.906;2023-03-23T15:58:29;97382.00;;;15.70
20058;BMP180;10189;49.546;7.906;2023-03-23T16:00:56;97387.00;;;15.60
20058;BMP180;10189;49.546;7.906;2023-03-23T16:03:28;97389.00;;;15.60
20058;BMP180;10189;49.546;7.906;2023-03-23T16:05:57;97401.00;;;15.60
20058;BMP180;10189;49.546;7.906;2023-03-23T16:08:25;97395.00;;;15.60
20058;BMP180;10189;49.546;7.906;2023-03-23T16:10:51;97387.00;;;15.50
20058;BMP180;10189;49.546;7.906;2023-03-23T16:13:17;97386.00;;;15.40
20058;BMP180;10189;49.546;7.906;2023-03-23T16:15:45;97390.00;;;15.40
20058;BMP180;10189;49.546;7.906;2023-03-23T16:18:21;97389.00;;;15.40
20058;BMP180;10189;49.546;7.906;2023-03-23T16:20:48;97391.00;;;15.30
20058;BMP180;10189;49.546;7.906;2023-03-23T16:23:15;97389.00;;;15.30
20058;BMP180;10189;49.546;7.906;2023-03-23T16:25:41;97397.00;;;15.20
20058;BMP180;10189;49.546;7.906;2023-03-23T16:28:16;97391.00;;;15.10
20058;BMP180;10189;49.546;7.906;2023-03-23T16:30:43;97403.00;;;15.20
20058;BMP180;10189;49.546;7.906;2023-03-23T16:33:09;97404.00;;;15.30
20058;BMP180;10189;49.546;7.906;2023-03-23T16:35:36;97404.00;;;15.10
20058;BMP180;10189;49.546;7.906;2023-03-23T16:38:02;97400.00;;;15.10
20058;BMP180;10189;49.546;7.906;2023-03-23T16:40:28;97401.00;;;15.10
20058;BMP180;10189;49.546;7.906;2023-03-23T16:42:54;97394.00;;;15.00
20058;BMP180;10189;49.546;7.906;2023-03-23T16:45:21;97391.00;;;15.00
20058;BMP180;10189;49.546;7.906;2023-03-23T16:47:49;97402.00;;;14.90
20058;BMP180;10189;49.546;7.906;2023-03-23T16:50:17;97402.00;;;14.90
20058;BMP180;10189;49.546;7.906;2023-03-23T16:52:45;97393.00;;;15.00
20058;BMP180;10189;49.546;7.906;2023-03-23T16:55:15;97393.00;;;15.00